Time;durP1;ratioP1;P1;durP2;ratioP2;P2;SDS_P1;SDS_P2;PMS_P1;PMS_P2;Temp;Humidity;BMP_temperature;BMP_pressure;BME280_temperature;BME280_humidity;BME280_pressure;Samples;Min_cycle;Max_cycle;Signal;HPM_P1;HPM_P2
2022/12/10 00:00:28;;;;;;;3.65;3.08;;;5.10;99.90;;;;;;1917113;73;21180;-83
2022/12/10 00:03:19;;;;;;;4.20;2.92;;;5.10;99.90;;;;;;1932944;73;21151;-84
2022/12/10 00:06:13;;;;;;;3.58;3.05;;;5.00;99.90;;;;;;1939375;73;21110;-85
2022/12/10 00:09:08;;;;;;;4.17;3.37;;;5.00;99.90;;;;;;1916688;75;21088;-83
2022/12/10 00:11:59;;;;;;;5.72;4.15;;;5.00;99.90;;;;;;1917037;75;21126;-84
2022/12/10 00:14:51;;;;;;;4.83;3.90;;;5.00;99.90;;;;;;1917098;75;21117;-84
2022/12/10 00:17:42;;;;;;;5.25;4.10;;;5.00;99.90;;;;;;1917372;75;21129;-84
2022/12/10 00:23:15;;;;;;;6.42;3.60;;;4.90;99.90;;;;;;1945045;72;22179;-84
2022/12/10 00:26:10;;;;;;;5.00;3.70;;;4.90;99.90;;;;;;1885843;73;21118;-84
2022/12/10 00:29:04;;;;;;;6.17;3.62;;;4.90;99.90;;;;;;1886736;75;21054;-84
2022/12/10 00:31:59;;;;;;;4.53;3.10;;;4.90;99.90;;;;;;1902194;75;21091;-83
2022/12/10 00:37:38;;;;;;;3.58;2.92;;;4.80;99.90;;;;;;1955520;72;22912;-84
2022/12/10 00:40:29;;;;;;;3.77;2.85;;;4.80;99.90;;;;;;1929640;73;21186;-84
2022/12/10 00:43:21;;;;;;;4.30;3.20;;;4.70;99.90;;;;;;1926826;73;21139;-83
2022/12/10 00:46:14;;;;;;;4.83;3.30;;;4.70;99.90;;;;;;1934612;73;21095;-83
2022/12/10 00:49:06;;;;;;;4.92;3.55;;;4.60;99.90;;;;;;1937253;73;21560;-84
2022/12/10 00:51:57;;;;;;;5.10;3.52;;;4.60;99.90;;;;;;1923191;73;21106;-83
2022/12/10 00:57:28;;;;;;;5.33;3.83;;;4.60;99.90;;;;;;1943203;72;22304;-83
2022/12/10 01:00:20;;;;;;;4.67;3.77;;;4.50;99.90;;;;;;1913586;74;21137;-83
2022/12/10 01:03:12;;;;;;;5.65;4.20;;;4.50;99.90;;;;;;1919584;74;21993;-83
2022/12/10 01:06:12;;;;;;;4.37;3.55;;;4.50;99.90;;;;;;1911626;74;21115;-83
2022/12/10 01:09:06;;;;;;;5.08;3.98;;;4.50;99.90;;;;;;1909860;74;21242;-83
2022/12/10 01:12:01;;;;;;;5.35;4.10;;;4.50;99.90;;;;;;1905475;74;21094;-82
2022/12/10 01:14:53;;;;;;;4.55;3.75;;;4.50;99.90;;;;;;1913251;74;21191;-83
2022/12/10 01:20:24;;;;;;;4.70;3.67;;;4.50;99.90;;;;;;1930563;72;22440;-84
2022/12/10 01:23:16;;;;;;;5.85;4.05;;;4.50;99.90;;;;;;1887113;75;21102;-83
2022/12/10 01:26:09;;;;;;;5.00;3.77;;;4.60;99.90;;;;;;1889537;75;21189;-83
2022/12/10 01:29:03;;;;;;;6.45;4.00;;;4.50;99.90;;;;;;1884380;75;21193;-84
2022/12/10 01:31:56;;;;;;;5.12;3.80;;;4.50;99.90;;;;;;1884067;75;21087;-83
2022/12/10 01:34:47;;;;;;;4.83;3.62;;;4.50;99.90;;;;;;1885655;75;21056;-83
2022/12/10 01:37:39;;;;;;;5.25;3.90;;;4.60;99.90;;;;;;1884870;75;21087;-83
2022/12/10 01:40:31;;;;;;;5.45;3.92;;;4.50;99.90;;;;;;1887251;75;21099;-84
2022/12/10 01:43:22;;;;;;;5.17;4.00;;;4.50;99.90;;;;;;1880647;75;21661;-84
2022/12/10 01:46:14;;;;;;;4.92;3.85;;;4.50;99.90;;;;;;1882992;75;21206;-84
2022/12/10 01:49:08;;;;;;;4.97;3.72;;;4.50;99.90;;;;;;1887348;75;21649;-84
2022/12/10 01:52:01;;;;;;;6.15;4.45;;;4.50;99.90;;;;;;1876399;75;21249;-84
2022/12/10 01:57:33;;;;;;;4.87;3.70;;;4.40;99.90;;;;;;1944147;72;22204;-83
2022/12/10 02:00:25;;;;;;;5.00;3.52;;;4.40;99.90;;;;;;1896279;74;21142;-83
2022/12/10 02:03:23;;;;;;;6.30;4.20;;;4.40;99.90;;;;;;1893091;75;21128;-83
2022/12/10 02:06:22;;;;;;;5.83;4.10;;;4.30;99.90;;;;;;1899813;75;21141;-83
2022/12/10 02:09:20;;;;;;;5.00;3.45;;;4.30;99.90;;;;;;1903403;75;21127;-83
2022/12/10 02:14:57;;;;;;;5.37;3.45;;;4.30;99.90;;;;;;1950995;72;22254;-84
2022/12/10 02:20:33;;;;;;;6.87;4.60;;;4.30;99.90;;;;;;1945159;72;22705;-84
2022/12/10 02:23:29;;;;;;;5.90;4.28;;;4.30;99.90;;;;;;1933572;73;21152;-83
2022/12/10 02:26:25;;;;;;;5.17;3.87;;;4.40;99.90;;;;;;1917036;75;21165;-83
2022/12/10 02:29:19;;;;;;;5.23;3.67;;;4.30;99.90;;;;;;1923891;73;21620;-83
2022/12/10 02:32:15;;;;;;;6.78;4.10;;;4.30;99.90;;;;;;1916852;75;21113;-84
2022/12/10 02:35:10;;;;;;;5.58;3.90;;;4.20;99.90;;;;;;1916636;73;21167;-83
2022/12/10 02:38:05;;;;;;;4.67;3.90;;;4.20;99.90;;;;;;1916567;75;21039;-83
2022/12/10 02:41:02;;;;;;;4.85;3.15;;;4.20;99.90;;;;;;1925804;73;21102;-83
2022/12/10 02:43:57;;;;;;;5.40;4.25;;;4.20;99.90;;;;;;1923791;73;21155;-83
2022/12/10 02:46:51;;;;;;;6.33;3.90;;;4.20;99.90;;;;;;1917156;75;21171;-83
2022/12/10 02:49:45;;;;;;;6.83;4.28;;;4.20;99.90;;;;;;1924226;73;21123;-83
2022/12/10 02:55:19;;;;;;;5.10;3.83;;;4.10;99.90;;;;;;1937260;72;22346;-84
2022/12/10 02:58:15;;;;;;;5.20;3.98;;;4.10;99.90;;;;;;1877993;75;21121;-83
2022/12/10 03:01:12;;;;;;;5.00;3.72;;;4.10;99.90;;;;;;1888118;75;21064;-83
2022/12/10 03:04:07;;;;;;;7.53;3.92;;;4.10;99.90;;;;;;1888429;75;21154;-83
2022/12/10 03:09:43;;;;;;;6.03;4.22;;;4.10;99.90;;;;;;1948224;72;22258;-84
2022/12/10 03:12:38;;;;;;;5.50;3.55;;;3.90;99.90;;;;;;1924360;73;21146;-83
2022/12/10 03:15:33;;;;;;;6.17;4.17;;;3.90;99.90;;;;;;1933280;73;21207;-84
2022/12/10 03:18:27;;;;;;;5.67;4.30;;;3.80;99.90;;;;;;1931034;73;21098;-83
2022/12/10 03:21:19;;;;;;;6.20;4.05;;;3.80;99.90;;;;;;1918563;73;21147;-84
2022/12/10 03:26:53;;;;;;;5.22;3.45;;;3.80;99.90;;;;;;1948153;72;22273;-84
2022/12/10 03:29:46;;;;;;;3.85;2.42;;;3.80;99.90;;;;;;1887623;75;21103;-84
2022/12/10 03:32:39;;;;;;;4.60;3.52;;;3.90;99.90;;;;;;1889248;75;21204;-83
2022/12/10 03:38:13;;;;;;;3.90;2.80;;;3.80;99.90;;;;;;1939711;72;22103;-83
2022/12/10 03:41:05;;;;;;;3.98;2.95;;;3.80;99.90;;;;;;1879294;75;21126;-84
2022/12/10 03:43:59;;;;;;;4.30;3.30;;;3.90;99.90;;;;;;1893192;75;21209;-84
2022/12/10 03:46:50;;;;;;;6.03;2.75;;;3.90;99.90;;;;;;1895044;75;21127;-84
2022/12/10 03:52:22;;;;;;;2.92;2.05;;;3.90;99.90;;;;;;1958302;72;22182;-84
2022/12/10 03:55:14;;;;;;;5.95;3.75;;;3.90;99.90;;;;;;1921784;74;21196;-84
2022/12/10 03:58:05;;;;;;;5.80;3.92;;;3.80;99.90;;;;;;1911081;74;21175;-84
2022/12/10 04:00:57;;;;;;;5.90;4.03;;;3.80;99.90;;;;;;1922516;74;21108;-84
2022/12/10 04:03:49;;;;;;;5.45;3.25;;;3.70;99.90;;;;;;1904975;74;21635;-83
2022/12/10 04:06:42;;;;;;;5.60;4.17;;;3.70;99.90;;;;;;1904615;74;21184;-84
2022/12/10 04:09:34;;;;;;;6.12;4.40;;;3.70;99.90;;;;;;1914850;74;21103;-83
2022/12/10 04:18:15;;;;;;;4.30;2.87;;;3.50;99.90;;;;;;1898989;75;21102;-83
2022/12/10 04:26:57;;;;;;;3.37;2.10;;;3.30;99.90;;;;;;1954134;72;22245;-84
2022/12/10 04:29:49;;;;;;;5.90;3.30;;;3.30;99.90;;;;;;1888764;75;21100;-84
2022/12/10 04:35:24;;;;;;;3.65;2.10;;;3.20;99.90;;;;;;1959117;72;22177;-83
2022/12/10 04:40:58;;;;;;;3.10;2.30;;;3.10;99.90;;;;;;1946996;72;22083;-84
2022/12/10 04:43:49;;;;;;;3.87;2.30;;;3.10;99.90;;;;;;1936911;73;21102;-84
2022/12/10 04:46:42;;;;;;;3.85;2.42;;;3.10;99.90;;;;;;1925948;73;21134;-84
2022/12/10 04:49:34;;;;;;;3.67;2.40;;;3.10;99.90;;;;;;1925569;73;21206;-84
2022/12/10 04:52:28;;;;;;;2.60;1.95;;;3.10;99.90;;;;;;1920438;73;21114;-84
2022/12/10 04:57:59;;;;;;;2.92;1.60;;;3.20;99.90;;;;;;1952446;72;22309;-84
2022/12/10 05:00:50;;;;;;;2.92;2.35;;;3.30;99.90;;;;;;1906720;74;21148;-84
2022/12/10 05:03:42;;;;;;;4.10;2.92;;;3.30;99.90;;;;;;1913044;74;21127;-84
2022/12/10 05:06:34;;;;;;;4.03;2.67;;;3.30;99.90;;;;;;1821942;77;21078;-84
2022/12/10 05:09:26;;;;;;;2.83;1.92;;;3.20;99.90;;;;;;1908251;73;21122;-86
2022/12/10 05:12:17;;;;;;;4.35;2.92;;;3.20;99.90;;;;;;1931522;73;21104;-84
2022/12/10 05:15:11;;;;;;;4.35;2.42;;;3.10;99.90;;;;;;1902567;73;21578;-84
2022/12/10 05:20:43;;;;;;;2.52;1.95;;;3.10;99.90;;;;;;1933826;72;22103;-85
2022/12/10 05:23:36;;;;;;;2.90;1.98;;;3.20;99.90;;;;;;1893374;75;21114;-83
2022/12/10 05:26:28;;;;;;;3.67;2.47;;;3.20;99.90;;;;;;1898441;75;21062;-84
2022/12/10 05:31:59;;;;;;;2.33;1.67;;;3.20;99.90;;;;;;1932659;72;22171;-84
2022/12/10 05:34:51;;;;;;;1.72;1.25;;;3.20;99.90;;;;;;1876150;75;21114;-84
2022/12/10 05:40:26;;;;;;;4.20;1.98;;;3.10;99.90;;;;;;1942867;72;22788;-84
2022/12/10 05:43:18;;;;;;;2.37;1.60;;;3.00;99.90;;;;;;1912809;74;21048;-83
2022/12/10 05:46:12;;;;;;;2.35;1.70;;;2.90;99.90;;;;;;1928481;74;21052;-83
2022/12/10 05:49:05;;;;;;;4.78;2.67;;;2.80;99.90;;;;;;1906327;74;21444;-83
2022/12/10 05:51:57;;;;;;;2.30;1.67;;;2.80;99.90;;;;;;1904809;74;21115;-84
2022/12/10 05:54:49;;;;;;;1.70;1.22;;;2.80;99.90;;;;;;1916295;74;21044;-83
2022/12/10 06:00:20;;;;;;;3.22;1.42;;;2.90;99.90;;;;;;1945740;72;22208;-84
2022/12/10 06:05:53;;;;;;;2.27;1.45;;;3.00;99.90;;;;;;1946395;72;22200;-84
2022/12/10 06:08:45;;;;;;;3.67;2.00;;;2.90;99.90;;;;;;1916933;75;21658;-84
2022/12/10 06:11:38;;;;;;;3.60;2.35;;;2.80;99.90;;;;;;1917173;73;21052;-84
2022/12/10 06:14:30;;;;;;;4.03;2.00;;;2.80;99.90;;;;;;1917130;73;21098;-83
2022/12/10 06:17:21;;;;;;;2.92;1.67;;;2.80;99.90;;;;;;1919555;73;21091;-84
2022/12/10 06:20:13;;;;;;;2.77;1.92;;;2.70;99.90;;;;;;1941105;73;21051;-83
2022/12/10 06:23:05;;;;;;;2.95;2.08;;;2.70;99.90;;;;;;1920304;73;21352;-83
2022/12/10 06:25:57;;;;;;;1.82;1.45;;;2.90;99.90;;;;;;1925476;73;21090;-83
2022/12/10 06:28:48;;;;;;;3.17;1.80;;;2.90;99.90;;;;;;1933755;73;21075;-83
2022/12/10 06:31:41;;;;;;;2.85;1.47;;;2.90;99.90;;;;;;1918406;73;21126;-84
2022/12/10 06:34:32;;;;;;;2.35;1.70;;;2.90;99.90;;;;;;1937762;73;21121;-84
2022/12/10 06:40:04;;;;;;;1.42;1.00;;;2.90;99.90;;;;;;1933490;72;22720;-84
2022/12/10 06:42:55;;;;;;;1.98;1.45;;;3.10;99.90;;;;;;1898097;75;21530;-84
2022/12/10 06:48:28;;;;;;;2.50;1.85;;;2.80;99.90;;;;;;1944527;72;22234;-85
2022/12/10 06:51:20;;;;;;;3.00;2.10;;;2.80;99.90;;;;;;1894150;75;21099;-85
2022/12/10 06:54:13;;;;;;;1.90;1.27;;;2.70;99.90;;;;;;1883749;75;21090;-84
2022/12/10 06:57:05;;;;;;;2.37;1.65;;;2.60;99.90;;;;;;1886917;75;21090;-84
2022/12/10 06:59:56;;;;;;;2.05;1.52;;;2.70;99.90;;;;;;1884947;75;21162;-84
2022/12/10 07:05:30;;;;;;;1.87;1.40;;;2.70;99.90;;;;;;1946938;72;22127;-84
2022/12/10 07:08:23;;;;;;;1.55;1.30;;;2.80;99.90;;;;;;1889537;75;21123;-84
2022/12/10 07:11:17;;;;;;;1.40;0.90;;;2.80;99.90;;;;;;1885228;75;21578;-83
2022/12/10 07:14:10;;;;;;;4.62;2.22;;;2.80;99.90;;;;;;1859133;77;21054;-84
2022/12/10 07:17:02;;;;;;;3.02;2.20;;;2.70;99.90;;;;;;1874300;75;21179;-84
2022/12/10 07:19:54;;;;;;;2.58;1.55;;;2.70;99.90;;;;;;1866317;75;21167;-84
2022/12/10 07:25:25;;;;;;;3.10;2.17;;;2.60;99.90;;;;;;1946443;72;22265;-84
2022/12/10 07:28:19;;;;;;;3.70;3.05;;;2.60;99.90;;;;;;1912415;74;21224;-84
2022/12/10 07:31:12;;;;;;;3.72;2.33;;;2.50;99.90;;;;;;1923656;74;21176;-85
2022/12/10 07:34:04;;;;;;;2.25;1.92;;;2.50;99.90;;;;;;1907479;74;21140;-85
2022/12/10 07:36:55;;;;;;;3.50;2.65;;;2.60;99.90;;;;;;1875421;75;21176;-83
2022/12/10 07:39:47;;;;;;;4.15;3.05;;;2.60;99.90;;;;;;1906958;74;21111;-83
2022/12/10 07:42:39;;;;;;;4.70;3.33;;;2.50;99.90;;;;;;1904496;75;21090;-84
2022/12/10 07:45:31;;;;;;;3.67;3.10;;;2.50;99.90;;;;;;1904953;74;21111;-84
2022/12/10 07:51:05;;;;;;;2.80;1.80;;;2.50;99.90;;;;;;1949789;72;22217;-84
2022/12/10 07:53:57;;;;;;;3.25;2.12;;;2.50;99.90;;;;;;1918770;73;21138;-83
2022/12/10 07:56:49;;;;;;;3.60;2.60;;;2.60;99.90;;;;;;1916646;75;21105;-85
2022/12/10 07:59:40;;;;;;;2.20;1.70;;;2.50;99.90;;;;;;1927420;73;21243;-84
2022/12/10 08:05:12;;;;;;;4.28;2.75;;;2.70;99.90;;;;;;1924126;72;22663;-84
2022/12/10 08:08:04;;;;;;;2.90;1.95;;;2.60;99.90;;;;;;1907940;74;21156;-84
2022/12/10 08:11:00;;;;;;;2.58;1.95;;;2.60;99.90;;;;;;1899981;74;21534;-84
2022/12/10 08:13:52;;;;;;;2.55;1.90;;;2.70;99.90;;;;;;1909662;74;21233;-83
2022/12/10 08:16:45;;;;;;;3.55;2.62;;;2.70;99.90;;;;;;1902869;74;21129;-83
2022/12/10 08:22:22;;;;;;;2.58;2.08;;;2.70;99.90;;;;;;1917268;72;28052;-84
2022/12/10 08:25:13;;;;;;;2.87;2.58;;;2.80;99.90;;;;;;1876533;75;21123;-83
2022/12/10 08:28:05;;;;;;;3.35;2.72;;;2.80;99.90;;;;;;1912648;75;21112;-83
2022/12/10 08:30:57;;;;;;;4.45;3.52;;;2.70;99.90;;;;;;1911581;75;21098;-83
2022/12/10 08:33:49;;;;;;;5.10;3.65;;;2.60;99.90;;;;;;1902569;75;21235;-83
2022/12/10 08:36:41;;;;;;;4.83;3.98;;;2.50;99.90;;;;;;1880389;75;21417;-83
2022/12/10 08:39:33;;;;;;;7.17;5.70;;;2.40;99.90;;;;;;1894693;75;21138;-83
2022/12/10 08:45:05;;;;;;;6.00;4.80;;;2.40;99.90;;;;;;1943693;72;22112;-83
2022/12/10 08:47:56;;;;;;;4.92;4.22;;;2.30;99.90;;;;;;1892810;75;21152;-84
2022/12/10 08:50:48;;;;;;;7.30;4.08;;;2.30;99.90;;;;;;1899549;75;21097;-83
2022/12/10 08:56:24;;;;;;;4.50;3.60;;;2.30;99.90;;;;;;1931878;72;22112;-84
2022/12/10 08:59:15;;;;;;;6.37;5.37;;;2.30;99.90;;;;;;1880066;75;21115;-83
2022/12/10 09:02:11;;;;;;;4.90;4.05;;;2.30;99.90;;;;;;1894137;75;21475;-84
2022/12/10 09:05:04;;;;;;;6.90;4.60;;;2.30;99.90;;;;;;1887193;75;21244;-84
2022/12/10 09:10:38;;;;;;;7.20;4.42;;;2.30;99.90;;;;;;1940166;72;22193;-84
2022/12/10 09:13:30;;;;;;;6.70;5.22;;;2.30;99.90;;;;;;1889523;75;21087;-84
2022/12/10 09:16:24;;;;;;;7.58;5.40;;;2.20;99.90;;;;;;1872305;75;21175;-83
2022/12/10 09:21:57;;;;;;;7.47;4.92;;;2.20;99.90;;;;;;1931287;72;22174;-84
2022/12/10 09:24:48;;;;;;;8.00;5.97;;;2.20;99.90;;;;;;1904820;75;21168;-84
2022/12/10 09:30:29;;;;;;;6.08;3.85;;;2.20;99.90;;;;;;1926877;72;22182;-83
2022/12/10 09:33:23;;;;;;;7.08;4.83;;;2.30;99.90;;;;;;1911616;74;21151;-83
2022/12/10 09:36:15;;;;;;;9.08;5.90;;;2.30;99.90;;;;;;1900212;75;21577;-85
2022/12/10 09:39:07;;;;;;;9.10;6.60;;;2.20;99.90;;;;;;1907300;74;21098;-83
2022/12/10 09:42:13;;;;;;;6.60;4.58;;;2.20;99.90;;;;;;1898653;75;21094;-83
2022/12/10 09:45:12;;;;;;;8.53;6.03;;;2.20;99.90;;;;;;1897180;75;21101;-84
2022/12/10 09:48:08;;;;;;;8.00;5.65;;;2.20;99.90;;;;;;1898457;75;21041;-86
2022/12/10 09:51:05;;;;;;;7.17;5.65;;;2.20;99.90;;;;;;1901873;74;21106;-84
2022/12/10 09:53:58;;;;;;;8.58;5.42;;;2.20;99.90;;;;;;1884145;75;21102;-84
2022/12/10 09:56:53;;;;;;;8.85;6.22;;;2.20;99.90;;;;;;1876804;75;21082;-84
2022/12/10 09:59:48;;;;;;;9.33;7.50;;;2.30;99.90;;;;;;1911733;74;21114;-83
2022/12/10 10:05:26;;;;;;;8.13;5.65;;;2.30;99.90;;;;;;1944884;72;22226;-84
2022/12/10 10:08:24;;;;;;;11.33;7.15;;;2.30;99.90;;;;;;1878485;75;21176;-86
2022/12/10 10:11:20;;;;;;;9.23;6.87;;;2.30;99.90;;;;;;1882574;75;21222;-85
2022/12/10 10:14:15;;;;;;;8.88;6.45;;;2.30;99.90;;;;;;1877598;75;21112;-83
2022/12/10 10:17:11;;;;;;;13.48;9.08;;;2.40;99.90;;;;;;1893771;75;21083;-84
2022/12/10 10:20:02;;;;;;;11.05;7.72;;;2.30;99.90;;;;;;1873766;75;21107;-85
2022/12/10 10:25:33;;;;;;;14.68;9.70;;;2.30;99.90;;;;;;1927433;72;22181;-84
2022/12/10 10:28:28;;;;;;;12.33;8.38;;;2.30;99.90;;;;;;1898277;74;21083;-84
2022/12/10 10:31:24;;;;;;;13.70;9.13;;;2.30;99.90;;;;;;1889869;73;21146;-83
2022/12/10 10:34:19;;;;;;;13.53;9.75;;;2.20;99.90;;;;;;1878683;73;21087;-83
2022/12/10 10:40:06;;;;;;;13.20;8.40;;;2.30;99.90;;;;;;1933259;72;22159;-84
2022/12/10 10:43:03;;;;;;;10.17;6.37;;;2.30;99.90;;;;;;1896312;75;21181;-84
2022/12/10 10:46:01;;;;;;;11.43;8.23;;;2.30;99.90;;;;;;1897541;75;21487;-83
2022/12/10 10:48:55;;;;;;;11.63;7.50;;;2.40;99.90;;;;;;1879800;74;21838;-83
2022/12/10 10:51:46;;;;;;;13.55;8.38;;;2.40;99.90;;;;;;1909916;73;21148;-84
2022/12/10 10:54:42;;;;;;;12.85;9.43;;;2.50;99.90;;;;;;1863658;75;21088;-83
2022/12/10 10:57:36;;;;;;;12.07;8.03;;;2.50;99.90;;;;;;1880454;75;21145;-83
2022/12/10 11:00:28;;;;;;;12.93;7.97;;;2.40;99.90;;;;;;1888814;75;21098;-85
2022/12/10 11:03:20;;;;;;;14.80;8.80;;;2.40;99.90;;;;;;1890214;75;21665;-86
2022/12/10 11:08:39;;;;;;;10.98;7.92;;;2.40;99.90;;;;;;1935671;72;22213;-85
2022/12/10 11:14:18;;;;;;;17.70;11.10;;;2.50;99.90;;;;;;1924670;72;22298;-84
2022/12/10 11:17:20;;;;;;;13.08;8.70;;;2.50;99.90;;;;;;1894661;75;21114;-84
2022/12/10 11:23:10;;;;;;;14.35;9.38;;;2.50;99.90;;;;;;1929165;72;22459;-84
2022/12/10 11:26:12;;;;;;;12.73;7.53;;;2.50;99.90;;;;;;1900987;75;21164;-84
2022/12/10 11:29:17;;;;;;;13.35;9.33;;;2.50;99.90;;;;;;1885281;75;21168;-83
2022/12/10 11:35:02;;;;;;;14.60;9.68;;;2.50;99.90;;;;;;1927817;72;22254;-84
2022/12/10 11:37:58;;;;;;;16.27;10.48;;;2.50;99.90;;;;;;1906419;75;21175;-84
2022/12/10 11:40:53;;;;;;;17.52;10.23;;;2.50;99.90;;;;;;1902648;75;21081;-85
2022/12/10 11:44:04;;;;;;;14.95;9.85;;;2.50;99.90;;;;;;1898124;75;21135;-85
2022/12/10 11:47:14;;;;;;;16.15;10.53;;;2.50;99.90;;;;;;1916318;75;21178;-86
2022/12/10 11:50:13;;;;;;;19.02;12.23;;;2.40;99.90;;;;;;1907338;75;21515;-89
2022/12/10 11:56:30;;;;;;;16.48;10.10;;;2.40;99.90;;;;;;1981921;71;22129;-88
2022/12/10 12:02:43;;;;;;;14.03;8.68;;;2.40;99.90;;;;;;1948728;72;22245;-87
2022/12/10 12:11:11;;;;;;;12.47;7.40;;;2.40;99.90;;;;;;1940961;72;22228;-88
2022/12/10 12:14:07;;;;;;;14.55;8.90;;;2.40;99.90;;;;;;1901726;75;21099;-88
2022/12/10 12:17:05;;;;;;;13.48;8.53;;;2.40;99.90;;;;;;1906718;74;21136;-87
2022/12/10 12:39:40;;;;;;;12.98;7.58;;;2.40;99.90;;;;;;1960807;72;22190;-88
2022/12/10 12:45:18;;;;;;;12.85;8.48;;;2.30;99.90;;;;;;1944953;72;22188;-88
2022/12/10 12:50:58;;;;;;;11.93;7.20;;;2.30;99.90;;;;;;1934912;73;22198;-87
2022/12/10 12:56:34;;;;;;;12.15;7.55;;;2.20;99.90;;;;;;1941528;72;22742;-87
2022/12/10 12:59:34;;;;;;;14.63;9.20;;;2.30;99.90;;;;;;1886799;75;21185;-88
2022/12/10 13:02:41;;;;;;;15.93;10.50;;;2.20;99.90;;;;;;1917951;74;21201;-87
2022/12/10 13:05:38;;;;;;;12.37;7.65;;;2.20;99.90;;;;;;1855370;76;21133;-89
2022/12/10 13:08:35;;;;;;;11.53;7.37;;;2.20;99.90;;;;;;1866469;76;21092;-89
2022/12/10 13:14:20;;;;;;;12.53;7.75;;;2.10;99.90;;;;;;1949303;72;22209;-87
2022/12/10 13:20:31;;;;;;;9.58;6.47;;;2.10;99.90;;;;;;1924540;72;22191;-87
2022/12/10 13:23:35;;;;;;;11.65;6.60;;;2.10;99.90;;;;;;1907088;75;21171;-88
2022/12/10 13:26:30;;;;;;;13.78;7.72;;;2.10;99.90;;;;;;1883872;75;21118;-88
2022/12/10 13:29:39;;;;;;;11.08;6.78;;;2.10;99.90;;;;;;1900764;75;21115;-88
2022/12/10 13:35:32;;;;;;;10.30;6.75;;;2.00;99.90;;;;;;1921299;72;20442;-87
2022/12/10 13:38:24;;;;;;;;;;;2.00;99.90;;;;;;1896942;75;21077;-88
2022/12/10 13:50:23;;;;;;;10.10;6.15;;;2.00;99.90;;;;;;1947014;72;22347;-88
2022/12/10 13:56:03;;;;;;;9.25;6.83;;;2.00;99.90;;;;;;1928741;72;22202;-88
2022/12/10 13:59:07;;;;;;;6.67;4.62;;;2.00;99.90;;;;;;1873840;75;21187;-88
2022/12/10 14:02:05;;;;;;;8.40;5.58;;;2.00;99.90;;;;;;1878218;75;21067;-86
2022/12/10 14:05:13;;;;;;;;;;;2.00;99.90;;;;;;1881505;75;21094;-87
2022/12/10 14:11:11;;;;;;;11.20;6.90;;;2.00;99.90;;;;;;1932023;72;22228;-87
2022/12/10 14:14:05;;;;;;;11.00;5.95;;;2.00;99.90;;;;;;1881292;75;21111;-87
2022/12/10 14:16:59;;;;;;;10.88;5.20;;;2.00;99.90;;;;;;1874737;75;21103;-87
2022/12/10 14:22:48;;;;;;;8.98;5.25;;;1.90;99.90;;;;;;1946202;72;22628;-87
2022/12/10 14:25:54;;;;;;;10.32;6.80;;;1.90;99.90;;;;;;1917102;75;21248;-88
2022/12/10 14:29:01;;;;;;;11.25;7.08;;;1.90;99.90;;;;;;1926571;73;21099;-87
2022/12/10 14:31:53;;;;;;;7.75;4.72;;;1.90;99.90;;;;;;1929397;73;21043;-87
2022/12/10 14:34:50;;;;;;;10.35;6.25;;;1.90;99.90;;;;;;1929093;73;21051;-88
2022/12/10 14:37:44;;;;;;;9.45;5.67;;;1.90;99.90;;;;;;1922088;73;21103;-87
2022/12/10 14:40:39;;;;;;;12.30;6.40;;;1.80;99.90;;;;;;1932027;73;21090;-87
2022/12/10 14:43:34;;;;;;;10.88;6.75;;;1.80;99.90;;;;;;1935437;73;21149;-88
2022/12/10 14:46:28;;;;;;;9.93;6.33;;;1.80;99.90;;;;;;1937383;73;21086;-87
2022/12/10 14:49:24;;;;;;;9.48;5.12;;;1.90;99.90;;;;;;1922676;73;21076;-89
2022/12/10 14:55:15;;;;;;;9.65;6.40;;;1.70;99.90;;;;;;1944983;72;22228;-87
2022/12/10 15:00:51;;;;;;;13.58;10.28;;;1.80;99.90;;;;;;1932917;72;27950;-87
2022/12/10 15:03:46;;;;;;;13.83;7.28;;;1.70;99.90;;;;;;1905406;74;21111;-87
2022/12/10 15:06:39;;;;;;;8.93;5.70;;;1.70;99.90;;;;;;1921112;74;21112;-87
2022/12/10 15:12:36;;;;;;;;;;;;;;;;;;;;;
2022/12/10 15:21:05;;;;;;;9.88;6.00;;;1.60;99.90;;;;;;1928313;72;22684;-87
2022/12/10 15:24:15;;;;;;;10.72;6.53;;;1.60;99.90;;;;;;1909340;75;21164;-87
2022/12/10 15:27:18;;;;;;;11.15;7.42;;;1.60;99.90;;;;;;1901479;75;21107;-88
2022/12/10 15:30:25;;;;;;;12.53;7.85;;;1.60;99.90;;;;;;1903005;75;21166;-87
2022/12/10 15:33:28;;;;;;;10.72;6.40;;;1.60;99.90;;;;;;1903286;75;21195;-87
2022/12/10 15:36:30;;;;;;;11.95;7.40;;;1.60;99.90;;;;;;1907055;75;21118;-89
2022/12/10 15:39:25;;;;;;;11.45;7.28;;;1.60;99.90;;;;;;1906088;75;21167;-87
2022/12/10 15:45:19;;;;;;;11.65;7.05;;;1.60;99.90;;;;;;1939893;72;22211;-87
2022/12/10 15:50:55;;;;;;;8.68;5.65;;;1.70;99.90;;;;;;1934515;72;22295;-87
2022/12/10 15:53:47;;;;;;;11.25;6.15;;;1.60;99.90;;;;;;1891525;75;21409;-87
2022/12/10 15:56:38;;;;;;;8.95;6.58;;;1.60;99.90;;;;;;1886085;75;21094;-86
2022/12/10 15:59:30;;;;;;;16.00;9.33;;;1.70;99.90;;;;;;1882339;75;21059;-86
2022/12/10 16:05:12;;;;;;;15.30;11.28;;;1.60;99.90;;;;;;1921824;72;28634;-87
2022/12/10 16:10:44;;;;;;;12.30;8.53;;;1.60;99.90;;;;;;1946399;72;22251;-86
2022/12/10 16:13:40;;;;;;;11.25;6.80;;;1.60;99.90;;;;;;1888451;75;21180;-89
2022/12/10 16:16:30;;;;;;;11.05;6.42;;;1.60;99.90;;;;;;1873898;75;21095;-88
2022/12/10 16:19:22;;;;;;;11.95;7.08;;;1.60;99.90;;;;;;1872288;75;21201;-86
2022/12/10 16:22:16;;;;;;;9.83;6.20;;;1.60;99.90;;;;;;1891438;75;21145;-87
2022/12/10 16:25:09;;;;;;;12.05;7.75;;;1.60;99.90;;;;;;1881100;75;21107;-87
2022/12/10 16:30:48;;;;;;;13.10;7.75;;;1.60;99.90;;;;;;1930734;72;22276;-86
2022/12/10 16:33:41;;;;;;;13.18;7.78;;;1.70;99.90;;;;;;1902351;75;21111;-87
2022/12/10 16:36:32;;;;;;;9.98;6.30;;;1.60;99.90;;;;;;1904362;75;21131;-87
2022/12/10 16:39:24;;;;;;;10.45;5.80;;;1.50;99.90;;;;;;1911295;74;21115;-87
2022/12/10 16:42:17;;;;;;;12.78;7.03;;;1.60;99.90;;;;;;1887659;75;21103;-87
2022/12/10 16:45:19;;;;;;;12.15;7.78;;;1.60;99.90;;;;;;1908361;74;21169;-94
2022/12/10 16:50:53;;;;;;;12.10;7.67;;;1.60;99.90;;;;;;1953471;72;22221;-88
2022/12/10 16:56:26;;;;;;;13.35;7.53;;;1.60;99.90;;;;;;1921445;72;22281;-87
2022/12/10 16:59:18;;;;;;;12.93;7.87;;;1.60;99.90;;;;;;1895971;74;21225;-86
2022/12/10 17:02:15;;;;;;;9.43;6.83;;;1.60;99.90;;;;;;1899803;75;21141;-85
2022/12/10 17:05:13;;;;;;;10.50;6.20;;;1.60;99.90;;;;;;1893921;75;21107;-86
2022/12/10 17:08:06;;;;;;;14.80;8.93;;;1.60;99.90;;;;;;1880193;74;21104;-87
2022/12/10 17:14:15;;;;;;;17.90;9.40;;;1.60;99.90;;;;;;1895122;74;21089;-87
2022/12/10 17:17:10;;;;;;;16.17;9.88;;;1.50;99.90;;;;;;1908916;74;21574;-85
2022/12/10 17:20:12;;;;;;;13.45;8.43;;;1.50;99.90;;;;;;1894761;75;21095;-85
2022/12/10 17:23:03;;;;;;;13.22;7.90;;;1.50;99.90;;;;;;1878978;75;21649;-85
2022/12/10 17:25:57;;;;;;;11.65;7.08;;;1.50;99.90;;;;;;1904583;74;21043;-85
2022/12/10 17:28:49;;;;;;;10.10;6.55;;;1.50;99.90;;;;;;1895399;74;21099;-86
2022/12/10 17:31:41;;;;;;;13.20;6.75;;;1.50;99.90;;;;;;1903552;74;21153;-85
2022/12/10 17:37:14;;;;;;;14.28;8.93;;;1.50;99.90;;;;;;1952893;72;22169;-86
2022/12/10 17:40:13;;;;;;;13.03;8.45;;;1.50;99.90;;;;;;1933517;73;21157;-85
2022/12/10 17:43:07;;;;;;;14.43;8.63;;;1.50;99.90;;;;;;1925171;73;21091;-86
2022/12/10 17:46:00;;;;;;;15.85;9.70;;;1.50;99.90;;;;;;1904463;74;21164;-86
2022/12/10 17:51:40;;;;;;;16.23;9.18;;;1.40;99.90;;;;;;1929266;72;22935;-86
2022/12/10 17:54:32;;;;;;;15.95;9.95;;;1.40;99.90;;;;;;1905572;75;21122;-86
2022/12/10 18:00:06;;;;;;;11.40;8.00;;;1.40;99.90;;;;;;1932376;72;22149;-86
2022/12/10 18:03:00;;;;;;;12.45;8.00;;;1.40;99.90;;;;;;1887789;75;21111;-85
2022/12/10 18:05:52;;;;;;;14.45;8.78;;;1.40;99.90;;;;;;1880497;75;21087;-86
2022/12/10 18:08:45;;;;;;;13.43;7.70;;;1.40;99.90;;;;;;1882142;75;21102;-85
2022/12/10 18:11:39;;;;;;;14.55;9.10;;;1.40;99.90;;;;;;1896792;75;21088;-86
2022/12/10 18:14:30;;;;;;;12.75;8.38;;;1.40;99.90;;;;;;1898088;75;21064;-86
2022/12/10 18:20:04;;;;;;;11.18;7.20;;;1.30;99.90;;;;;;1975101;72;22182;-85
2022/12/10 18:25:37;;;;;;;13.43;8.65;;;1.40;99.90;;;;;;1930327;72;22252;-86
2022/12/10 18:28:54;;;;;;;9.05;6.05;;;1.50;99.90;;;;;;1887837;75;21180;-85
2022/12/10 18:31:46;;;;;;;10.20;6.58;;;1.40;99.90;;;;;;1893830;75;21056;-86
2022/12/10 18:34:37;;;;;;;11.18;6.47;;;1.40;99.90;;;;;;1881362;75;21196;-86
2022/12/10 18:40:14;;;;;;;10.72;6.65;;;1.40;99.90;;;;;;1955932;72;22185;-86
2022/12/10 18:45:47;;;;;;;11.97;6.65;;;1.50;99.90;;;;;;1936495;72;22276;-86
2022/12/10 18:48:39;;;;;;;10.43;7.22;;;1.50;99.90;;;;;;1901209;75;21102;-86
2022/12/10 18:51:31;;;;;;;8.75;5.03;;;1.50;99.90;;;;;;1894651;75;21186;-85
2022/12/10 18:54:23;;;;;;;11.20;6.53;;;1.50;99.90;;;;;;1900113;75;21092;-85
2022/12/10 18:57:15;;;;;;;10.35;6.87;;;1.50;99.90;;;;;;1902643;75;21110;-85
2022/12/10 19:00:16;;;;;;;11.93;8.20;;;1.50;99.90;;;;;;1893751;75;21547;-85
2022/12/10 19:05:50;;;;;;;10.48;5.47;;;1.50;99.90;;;;;;1933959;72;22283;-86
2022/12/10 19:08:42;;;;;;;12.65;8.08;;;1.50;99.90;;;;;;1910130;75;21188;-86
2022/12/10 19:14:16;;;;;;;11.88;6.85;;;1.50;99.90;;;;;;1932403;72;22199;-84
2022/12/10 19:17:09;;;;;;;10.15;6.22;;;1.40;99.90;;;;;;1918751;73;21125;-86
2022/12/10 19:20:00;;;;;;;10.58;6.45;;;1.40;99.90;;;;;;1905503;74;21060;-86